sensor_id;sensor_type;location;lat;lon;timestamp;temperature;humidity
67157;SHT31;54086;50.126;8.710;2023-02-11T00:00:23;2.05;87.19
67157;SHT31;54086;50.126;8.710;2023-02-11T00:02:48;2.00;87.24
67157;SHT31;54086;50.126;8.710;2023-02-11T00:05:14;2.00;87.35
67157;SHT31;54086;50.126;8.710;2023-02-11T00:07:39;1.98;87.28
67157;SHT31;54086;50.126;8.710;2023-02-11T00:10:05;1.89;87.34
67157;SHT31;54086;50.126;8.710;2023-02-11T00:12:33;1.85;87.57
67157;SHT31;54086;50.126;8.710;2023-02-11T00:14:58;1.87;87.52
67157;SHT31;54086;50.126;8.710;2023-02-11T00:17:24;1.86;87.56
67157;SHT31;54086;50.126;8.710;2023-02-11T00:19:50;1.90;87.41
67157;SHT31;54086;50.126;8.710;2023-02-11T00:22:15;1.90;87.45
67157;SHT31;54086;50.126;8.710;2023-02-11T00:24:41;1.87;87.48
67157;SHT31;54086;50.126;8.710;2023-02-11T00:27:06;1.89;87.54
67157;SHT31;54086;50.126;8.710;2023-02-11T00:29:31;1.93;87.44
67157;SHT31;54086;50.126;8.710;2023-02-11T00:31:57;1.92;87.38
67157;SHT31;54086;50.126;8.710;2023-02-11T00:34:22;1.95;87.36
67157;SHT31;54086;50.126;8.710;2023-02-11T00:36:48;1.98;87.40
67157;SHT31;54086;50.126;8.710;2023-02-11T00:39:13;1.92;87.41
67157;SHT31;54086;50.126;8.710;2023-02-11T00:41:39;2.00;87.40
67157;SHT31;54086;50.126;8.710;2023-02-11T00:44:04;2.03;87.25
67157;SHT31;54086;50.126;8.710;2023-02-11T00:46:30;2.02;87.35
67157;SHT31;54086;50.126;8.710;2023-02-11T00:48:55;2.06;87.10
67157;SHT31;54086;50.126;8.710;2023-02-11T00:51:25;2.06;87.22
67157;SHT31;54086;50.126;8.710;2023-02-11T00:53:51;2.13;87.15
67157;SHT31;54086;50.126;8.710;2023-02-11T00:56:17;2.19;87.03
67157;SHT31;54086;50.126;8.710;2023-02-11T00:58:42;2.24;86.90
67157;SHT31;54086;50.126;8.710;2023-02-11T01:01:08;2.29;86.83
67157;SHT31;54086;50.126;8.710;2023-02-11T01:03:34;2.34;86.58
67157;SHT31;54086;50.126;8.710;2023-02-11T01:05:59;2.36;86.39
67157;SHT31;54086;50.126;8.710;2023-02-11T01:08:25;2.41;86.29
67157;SHT31;54086;50.126;8.710;2023-02-11T01:10:58;2.48;86.17
67157;SHT31;54086;50.126;8.710;2023-02-11T01:13:24;2.38;86.46
67157;SHT31;54086;50.126;8.710;2023-02-11T01:15:51;2.41;86.59
67157;SHT31;54086;50.126;8.710;2023-02-11T01:18:16;2.47;86.41
67157;SHT31;54086;50.126;8.710;2023-02-11T01:20:42;2.50;86.28
67157;SHT31;54086;50.126;8.710;2023-02-11T01:23:07;2.48;86.29
67157;SHT31;54086;50.126;8.710;2023-02-11T01:25:32;2.52;86.33
67157;SHT31;54086;50.126;8.710;2023-02-11T01:27:58;2.50;86.27
67157;SHT31;54086;50.126;8.710;2023-02-11T01:30:23;2.51;86.35
67157;SHT31;54086;50.126;8.710;2023-02-11T01:32:48;2.51;86.26
67157;SHT31;54086;50.126;8.710;2023-02-11T01:35:14;2.55;86.17
67157;SHT31;54086;50.126;8.710;2023-02-11T01:37:39;2.62;86.08
67157;SHT31;54086;50.126;8.710;2023-02-11T01:40:10;2.64;85.98
67157;SHT31;54086;50.126;8.710;2023-02-11T01:42:36;2.48;86.38
67157;SHT31;54086;50.126;8.710;2023-02-11T01:48:06;2.41;86.61
67157;SHT31;54086;50.126;8.710;2023-02-11T01:50:33;2.45;86.66
67157;SHT31;54086;50.126;8.710;2023-02-11T01:52:58;2.50;86.60
67157;SHT31;54086;50.126;8.710;2023-02-11T01:55:44;2.52;86.49
67157;SHT31;54086;50.126;8.710;2023-02-11T01:58:30;2.51;86.65
67157;SHT31;54086;50.126;8.710;2023-02-11T02:00:57;2.54;86.83
67157;SHT31;54086;50.126;8.710;2023-02-11T02:03:23;2.55;87.22
67157;SHT31;54086;50.126;8.710;2023-02-11T02:10:58;2.48;87.42
67157;SHT31;54086;50.126;8.710;2023-02-11T02:13:26;2.45;87.21
67157;SHT31;54086;50.126;8.710;2023-02-11T02:15:57;2.42;87.48
67157;SHT31;54086;50.126;8.710;2023-02-11T02:24:30;2.47;87.36
67157;SHT31;54086;50.126;8.710;2023-02-11T02:27:32;2.45;87.49
67157;SHT31;54086;50.126;8.710;2023-02-11T02:30:23;2.47;87.45
67157;SHT31;54086;50.126;8.710;2023-02-11T02:38:09;2.47;88.09
67157;SHT31;54086;50.126;8.710;2023-02-11T02:40:41;2.50;87.99
67157;SHT31;54086;50.126;8.710;2023-02-11T02:43:10;2.44;87.82
67157;SHT31;54086;50.126;8.710;2023-02-11T02:45:37;2.47;87.87
67157;SHT31;54086;50.126;8.710;2023-02-11T02:48:02;2.44;87.94
67157;SHT31;54086;50.126;8.710;2023-02-11T02:50:30;2.54;87.85
67157;SHT31;54086;50.126;8.710;2023-02-11T02:53:54;2.58;87.88
67157;SHT31;54086;50.126;8.710;2023-02-11T02:56:03;2.58;87.61
67157;SHT31;54086;50.126;8.710;2023-02-11T03:04:38;2.45;88.19
67157;SHT31;54086;50.126;8.710;2023-02-11T03:07:11;2.38;88.22
67157;SHT31;54086;50.126;8.710;2023-02-11T03:09:50;2.33;88.22
67157;SHT31;54086;50.126;8.710;2023-02-11T03:12:17;2.30;88.46
67157;SHT31;54086;50.126;8.710;2023-02-11T03:14:44;2.24;88.56
67157;SHT31;54086;50.126;8.710;2023-02-11T03:17:10;2.21;88.76
67157;SHT31;54086;50.126;8.710;2023-02-11T03:19:40;2.23;88.63
67157;SHT31;54086;50.126;8.710;2023-02-11T03:22:12;2.29;88.64
67157;SHT31;54086;50.126;8.710;2023-02-11T03:24:40;2.36;88.49
67157;SHT31;54086;50.126;8.710;2023-02-11T03:32:28;2.13;88.76
67157;SHT31;54086;50.126;8.710;2023-02-11T03:35:02;2.14;88.84
67157;SHT31;54086;50.126;8.710;2023-02-11T03:37:34;2.11;89.00
67157;SHT31;54086;50.126;8.710;2023-02-11T03:40:05;2.13;88.82
67157;SHT31;54086;50.126;8.710;2023-02-11T03:42:35;2.11;88.87
67157;SHT31;54086;50.126;8.710;2023-02-11T03:45:06;2.10;88.95
67157;SHT31;54086;50.126;8.710;2023-02-11T03:47:34;2.16;88.78
67157;SHT31;54086;50.126;8.710;2023-02-11T03:50:04;2.17;88.81
67157;SHT31;54086;50.126;8.710;2023-02-11T03:52:31;2.19;88.72
67157;SHT31;54086;50.126;8.710;2023-02-11T03:54:59;2.17;88.74
67157;SHT31;54086;50.126;8.710;2023-02-11T03:57:25;2.21;88.69
67157;SHT31;54086;50.126;8.710;2023-02-11T03:59:57;2.29;88.75
67157;SHT31;54086;50.126;8.710;2023-02-11T04:02:26;2.38;88.62
67157;SHT31;54086;50.126;8.710;2023-02-11T04:04:53;2.30;88.32
67157;SHT31;54086;50.126;8.710;2023-02-11T04:07:18;2.36;88.41
67157;SHT31;54086;50.126;8.710;2023-02-11T04:09:44;2.42;88.59
67157;SHT31;54086;50.126;8.710;2023-02-11T04:12:09;2.36;88.07
67157;SHT31;54086;50.126;8.710;2023-02-11T04:14:35;2.40;88.12
67157;SHT31;54086;50.126;8.710;2023-02-11T04:17:01;2.45;87.84
67157;SHT31;54086;50.126;8.710;2023-02-11T04:19:26;2.44;87.96
67157;SHT31;54086;50.126;8.710;2023-02-11T04:21:52;2.50;87.69
67157;SHT31;54086;50.126;8.710;2023-02-11T04:24:17;2.50;87.71
67157;SHT31;54086;50.126;8.710;2023-02-11T04:26:42;2.50;87.62
67157;SHT31;54086;50.126;8.710;2023-02-11T04:29:08;2.52;87.90
67157;SHT31;54086;50.126;8.710;2023-02-11T04:31:33;2.57;87.83
67157;SHT31;54086;50.126;8.710;2023-02-11T04:33:58;2.54;87.56
67157;SHT31;54086;50.126;8.710;2023-02-11T04:36:24;2.48;87.57
67157;SHT31;54086;50.126;8.710;2023-02-11T04:38:49;2.42;87.58
67157;SHT31;54086;50.126;8.710;2023-02-11T04:41:15;2.44;87.58
67157;SHT31;54086;50.126;8.710;2023-02-11T04:43:40;2.41;87.75
67157;SHT31;54086;50.126;8.710;2023-02-11T04:46:05;2.45;87.87
67157;SHT31;54086;50.126;8.710;2023-02-11T04:48:31;2.41;87.85
67157;SHT31;54086;50.126;8.710;2023-02-11T04:50:56;2.42;87.90
67157;SHT31;54086;50.126;8.710;2023-02-11T04:53:21;2.52;87.74
67157;SHT31;54086;50.126;8.710;2023-02-11T04:55:48;2.57;87.65
67157;SHT31;54086;50.126;8.710;2023-02-11T04:58:15;2.61;87.67
67157;SHT31;54086;50.126;8.710;2023-02-11T05:00:40;2.58;87.48
67157;SHT31;54086;50.126;8.710;2023-02-11T05:03:05;2.58;87.44
67157;SHT31;54086;50.126;8.710;2023-02-11T05:05:31;2.58;87.40
67157;SHT31;54086;50.126;8.710;2023-02-11T05:07:56;2.72;87.39
67157;SHT31;54086;50.126;8.710;2023-02-11T05:10:21;2.62;87.47
67157;SHT31;54086;50.126;8.710;2023-02-11T05:12:47;2.60;87.46
67157;SHT31;54086;50.126;8.710;2023-02-11T05:15:13;2.57;87.42
67157;SHT31;54086;50.126;8.710;2023-02-11T05:17:39;2.57;87.47
67157;SHT31;54086;50.126;8.710;2023-02-11T05:20:04;2.57;87.37
67157;SHT31;54086;50.126;8.710;2023-02-11T05:22:30;2.48;87.54
67157;SHT31;54086;50.126;8.710;2023-02-11T05:24:55;2.51;87.69
67157;SHT31;54086;50.126;8.710;2023-02-11T05:27:20;2.62;87.46
67157;SHT31;54086;50.126;8.710;2023-02-11T05:29:46;2.58;87.31
67157;SHT31;54086;50.126;8.710;2023-02-11T05:32:11;2.68;87.09
67157;SHT31;54086;50.126;8.710;2023-02-11T05:34:37;2.61;87.05
67157;SHT31;54086;50.126;8.710;2023-02-11T05:37:02;2.60;87.22
67157;SHT31;54086;50.126;8.710;2023-02-11T05:39:27;2.62;87.23
67157;SHT31;54086;50.126;8.710;2023-02-11T05:41:53;2.64;87.18
67157;SHT31;54086;50.126;8.710;2023-02-11T05:44:18;2.66;87.12
67157;SHT31;54086;50.126;8.710;2023-02-11T05:46:43;2.74;87.09
67157;SHT31;54086;50.126;8.710;2023-02-11T05:49:09;2.68;87.00
67157;SHT31;54086;50.126;8.710;2023-02-11T05:51:34;2.68;87.09
67157;SHT31;54086;50.126;8.710;2023-02-11T05:53:59;2.66;87.07
67157;SHT31;54086;50.126;8.710;2023-02-11T05:56:25;2.71;87.04
67157;SHT31;54086;50.126;8.710;2023-02-11T05:58:50;2.72;86.95
67157;SHT31;54086;50.126;8.710;2023-02-11T06:01:16;2.72;86.89
67157;SHT31;54086;50.126;8.710;2023-02-11T06:03:41;2.71;87.04
67157;SHT31;54086;50.126;8.710;2023-02-11T06:06:11;2.71;86.94
67157;SHT31;54086;50.126;8.710;2023-02-11T06:08:37;2.75;86.83
67157;SHT31;54086;50.126;8.710;2023-02-11T06:11:02;2.79;86.81
67157;SHT31;54086;50.126;8.710;2023-02-11T06:13:27;2.82;86.64
67157;SHT31;54086;50.126;8.710;2023-02-11T06:15:58;2.79;86.86
67157;SHT31;54086;50.126;8.710;2023-02-11T06:18:24;2.77;86.73
67157;SHT31;54086;50.126;8.710;2023-02-11T06:20:49;2.85;86.64
67157;SHT31;54086;50.126;8.710;2023-02-11T06:23:14;2.82;86.56
67157;SHT31;54086;50.126;8.710;2023-02-11T06:25:40;2.74;86.61
67157;SHT31;54086;50.126;8.710;2023-02-11T06:28:05;2.68;86.72
67157;SHT31;54086;50.126;8.710;2023-02-11T06:30:30;2.60;86.89
67157;SHT31;54086;50.126;8.710;2023-02-11T06:32:56;2.61;86.99
67157;SHT31;54086;50.126;8.710;2023-02-11T06:35:21;2.57;87.01
67157;SHT31;54086;50.126;8.710;2023-02-11T06:37:47;2.51;87.18
67157;SHT31;54086;50.126;8.710;2023-02-11T06:40:14;2.51;87.30
67157;SHT31;54086;50.126;8.710;2023-02-11T06:42:39;2.50;87.32
67157;SHT31;54086;50.126;8.710;2023-02-11T06:45:06;2.50;87.26
67157;SHT31;54086;50.126;8.710;2023-02-11T06:47:33;2.47;87.38
67157;SHT31;54086;50.126;8.710;2023-02-11T06:49:59;2.42;87.43
67157;SHT31;54086;50.126;8.710;2023-02-11T06:52:24;2.45;87.50
67157;SHT31;54086;50.126;8.710;2023-02-11T06:54:50;2.41;87.52
67157;SHT31;54086;50.126;8.710;2023-02-11T06:57:15;2.37;87.54
67157;SHT31;54086;50.126;8.710;2023-02-11T06:59:40;2.38;87.51
67157;SHT31;54086;50.126;8.710;2023-02-11T07:02:08;2.37;87.72
67157;SHT31;54086;50.126;8.710;2023-02-11T07:04:33;2.41;87.53
67157;SHT31;54086;50.126;8.710;2023-02-11T07:06:59;2.38;87.44
67157;SHT31;54086;50.126;8.710;2023-02-11T07:09:24;2.47;87.44
67157;SHT31;54086;50.126;8.710;2023-02-11T07:11:49;2.60;87.34
67157;SHT31;54086;50.126;8.710;2023-02-11T07:14:15;2.62;87.08
67157;SHT31;54086;50.126;8.710;2023-02-11T07:16:40;2.72;86.79
67157;SHT31;54086;50.126;8.710;2023-02-11T07:19:06;2.81;86.59
67157;SHT31;54086;50.126;8.710;2023-02-11T07:21:31;2.87;86.47
67157;SHT31;54086;50.126;8.710;2023-02-11T07:23:57;2.93;86.21
67157;SHT31;54086;50.126;8.710;2023-02-11T07:26:23;3.05;86.00
67157;SHT31;54086;50.126;8.710;2023-02-11T07:28:50;3.01;85.79
67157;SHT31;54086;50.126;8.710;2023-02-11T07:31:19;3.02;85.97
67157;SHT31;54086;50.126;8.710;2023-02-11T07:33:45;2.91;85.96
67157;SHT31;54086;50.126;8.710;2023-02-11T07:36:12;2.91;85.96
67157;SHT31;54086;50.126;8.710;2023-02-11T07:38:38;2.98;86.00
67157;SHT31;54086;50.126;8.710;2023-02-11T07:41:06;3.06;85.59
67157;SHT31;54086;50.126;8.710;2023-02-11T07:43:33;2.98;85.83
67157;SHT31;54086;50.126;8.710;2023-02-11T07:45:58;3.03;85.65
67157;SHT31;54086;50.126;8.710;2023-02-11T07:48:26;3.06;85.73
67157;SHT31;54086;50.126;8.710;2023-02-11T07:50:52;3.22;85.65
67157;SHT31;54086;50.126;8.710;2023-02-11T07:53:17;3.23;85.18
67157;SHT31;54086;50.126;8.710;2023-02-11T07:55:43;3.24;85.27
67157;SHT31;54086;50.126;8.710;2023-02-11T07:58:08;3.23;85.19
67157;SHT31;54086;50.126;8.710;2023-02-11T08:00:34;3.22;85.36
67157;SHT31;54086;50.126;8.710;2023-02-11T08:02:59;3.27;85.28
67157;SHT31;54086;50.126;8.710;2023-02-11T08:05:24;3.27;85.12
67157;SHT31;54086;50.126;8.710;2023-02-11T08:07:51;3.24;85.29
67157;SHT31;54086;50.126;8.710;2023-02-11T08:10:17;3.13;85.48
67157;SHT31;54086;50.126;8.710;2023-02-11T08:12:43;3.22;85.60
67157;SHT31;54086;50.126;8.710;2023-02-11T08:15:08;3.22;85.49
67157;SHT31;54086;50.126;8.710;2023-02-11T08:17:35;3.27;85.44
67157;SHT31;54086;50.126;8.710;2023-02-11T08:20:00;3.27;85.39
67157;SHT31;54086;50.126;8.710;2023-02-11T08:22:26;3.29;85.20
67157;SHT31;54086;50.126;8.710;2023-02-11T08:24:51;3.33;85.16
67157;SHT31;54086;50.126;8.710;2023-02-11T08:27:17;3.36;85.07
67157;SHT31;54086;50.126;8.710;2023-02-11T08:29:42;3.37;84.80
67157;SHT31;54086;50.126;8.710;2023-02-11T08:32:07;3.36;85.05
67157;SHT31;54086;50.126;8.710;2023-02-11T08:34:33;3.39;84.78
67157;SHT31;54086;50.126;8.710;2023-02-11T08:36:58;3.40;84.73
67157;SHT31;54086;50.126;8.710;2023-02-11T08:39:23;3.50;84.56
67157;SHT31;54086;50.126;8.710;2023-02-11T08:41:53;3.63;84.48
67157;SHT31;54086;50.126;8.710;2023-02-11T08:44:21;3.53;84.35
67157;SHT31;54086;50.126;8.710;2023-02-11T08:46:48;3.44;84.60
67157;SHT31;54086;50.126;8.710;2023-02-11T08:49:14;3.50;84.62
67157;SHT31;54086;50.126;8.710;2023-02-11T08:51:39;3.47;84.75
67157;SHT31;54086;50.126;8.710;2023-02-11T08:54:05;3.51;84.74
67157;SHT31;54086;50.126;8.710;2023-02-11T08:56:34;3.57;84.55
67157;SHT31;54086;50.126;8.710;2023-02-11T08:58:59;3.61;84.45
67157;SHT31;54086;50.126;8.710;2023-02-11T09:01:28;3.67;83.98
67157;SHT31;54086;50.126;8.710;2023-02-11T09:03:55;3.78;84.01
67157;SHT31;54086;50.126;8.710;2023-02-11T09:06:21;3.92;83.61
67157;SHT31;54086;50.126;8.710;2023-02-11T09:08:48;3.91;83.40
67157;SHT31;54086;50.126;8.710;2023-02-11T09:11:16;3.91;83.39
67157;SHT31;54086;50.126;8.710;2023-02-11T09:13:44;3.95;83.36
67157;SHT31;54086;50.126;8.710;2023-02-11T09:16:21;4.03;83.33
67157;SHT31;54086;50.126;8.710;2023-02-11T09:18:47;4.13;83.09
67157;SHT31;54086;50.126;8.710;2023-02-11T09:21:14;4.19;82.86
67157;SHT31;54086;50.126;8.710;2023-02-11T09:23:39;4.40;82.41
67157;SHT31;54086;50.126;8.710;2023-02-11T09:26:20;4.52;82.08
67157;SHT31;54086;50.126;8.710;2023-02-11T09:28:46;4.33;82.48
67157;SHT31;54086;50.126;8.710;2023-02-11T09:31:15;4.42;82.43
67157;SHT31;54086;50.126;8.710;2023-02-11T09:33:42;4.42;82.46
67157;SHT31;54086;50.126;8.710;2023-02-11T09:36:13;4.42;82.58
67157;SHT31;54086;50.126;8.710;2023-02-11T09:38:39;4.32;82.72
67157;SHT31;54086;50.126;8.710;2023-02-11T09:41:04;4.33;82.82
67157;SHT31;54086;50.126;8.710;2023-02-11T09:43:43;4.45;82.46
67157;SHT31;54086;50.126;8.710;2023-02-11T09:46:15;4.71;82.15
67157;SHT31;54086;50.126;8.710;2023-02-11T09:48:43;4.79;81.83
67157;SHT31;54086;50.126;8.710;2023-02-11T09:51:39;4.60;82.18
67157;SHT31;54086;50.126;8.710;2023-02-11T09:54:14;4.60;82.36
67157;SHT31;54086;50.126;8.710;2023-02-11T09:56:41;4.74;82.12
67157;SHT31;54086;50.126;8.710;2023-02-11T09:59:12;4.74;81.95
67157;SHT31;54086;50.126;8.710;2023-02-11T10:01:46;4.84;81.92
67157;SHT31;54086;50.126;8.710;2023-02-11T10:07:31;5.12;81.66
67157;SHT31;54086;50.126;8.710;2023-02-11T10:20:53;5.48;80.34
67157;SHT31;54086;50.126;8.710;2023-02-11T10:23:25;5.74;80.08
67157;SHT31;54086;50.126;8.710;2023-02-11T10:25:54;5.96;79.43
67157;SHT31;54086;50.126;8.710;2023-02-11T10:28:30;6.01;79.04
67157;SHT31;54086;50.126;8.710;2023-02-11T10:30:59;6.01;79.09
67157;SHT31;54086;50.126;8.710;2023-02-11T10:33:30;5.94;79.24
67157;SHT31;54086;50.126;8.710;2023-02-11T10:35:58;6.09;79.21
67157;SHT31;54086;50.126;8.710;2023-02-11T10:38:24;6.10;79.22
67157;SHT31;54086;50.126;8.710;2023-02-11T10:40:49;6.20;79.34
67157;SHT31;54086;50.126;8.710;2023-02-11T10:43:16;6.20;79.29
67157;SHT31;54086;50.126;8.710;2023-02-11T10:45:48;6.24;79.15
67157;SHT31;54086;50.126;8.710;2023-02-11T10:48:50;6.40;78.98
67157;SHT31;54086;50.126;8.710;2023-02-11T10:51:24;6.44;79.06
67157;SHT31;54086;50.126;8.710;2023-02-11T10:54:13;6.49;79.27
67157;SHT31;54086;50.126;8.710;2023-02-11T10:56:45;6.41;79.18
67157;SHT31;54086;50.126;8.710;2023-02-11T10:59:20;6.41;79.07
67157;SHT31;54086;50.126;8.710;2023-02-11T11:02:27;6.17;79.79
67157;SHT31;54086;50.126;8.710;2023-02-11T11:04:58;6.38;79.75
67157;SHT31;54086;50.126;8.710;2023-02-11T11:07:27;6.31;80.08
67157;SHT31;54086;50.126;8.710;2023-02-11T11:12:29;6.31;80.34
67157;SHT31;54086;50.126;8.710;2023-02-11T11:14:58;6.40;80.25
67157;SHT31;54086;50.126;8.710;2023-02-11T11:17:24;6.07;80.87
67157;SHT31;54086;50.126;8.710;2023-02-11T11:22:37;6.10;81.23
67157;SHT31;54086;50.126;8.710;2023-02-11T11:25:03;6.00;81.79
67157;SHT31;54086;50.126;8.710;2023-02-11T11:27:29;6.03;81.91
67157;SHT31;54086;50.126;8.710;2023-02-11T11:29:54;5.93;82.18
67157;SHT31;54086;50.126;8.710;2023-02-11T11:32:31;6.16;81.95
67157;SHT31;54086;50.126;8.710;2023-02-11T11:35:00;6.20;81.59
67157;SHT31;54086;50.126;8.710;2023-02-11T11:37:35;6.27;81.55
67157;SHT31;54086;50.126;8.710;2023-02-11T11:40:19;6.41;81.45
67157;SHT31;54086;50.126;8.710;2023-02-11T11:45:42;6.68;80.97
67157;SHT31;54086;50.126;8.710;2023-02-11T11:48:39;6.80;80.59
67157;SHT31;54086;50.126;8.710;2023-02-11T11:51:09;6.95;80.33
67157;SHT31;54086;50.126;8.710;2023-02-11T11:56:19;6.73;80.95
67157;SHT31;54086;50.126;8.710;2023-02-11T11:58:46;6.67;81.37
67157;SHT31;54086;50.126;8.710;2023-02-11T12:01:26;6.68;81.23
67157;SHT31;54086;50.126;8.710;2023-02-11T12:06:29;6.92;81.21
67157;SHT31;54086;50.126;8.710;2023-02-11T12:14:50;7.57;79.60
67157;SHT31;54086;50.126;8.710;2023-02-11T12:20:04;7.68;79.14
67157;SHT31;54086;50.126;8.710;2023-02-11T12:22:53;7.74;78.90
67157;SHT31;54086;50.126;8.710;2023-02-11T12:25:52;7.67;79.09
67157;SHT31;54086;50.126;8.710;2023-02-11T12:31:20;7.30;80.09
67157;SHT31;54086;50.126;8.710;2023-02-11T12:36:41;7.32;80.07
67157;SHT31;54086;50.126;8.710;2023-02-11T12:55:29;7.17;81.32
67157;SHT31;54086;50.126;8.710;2023-02-11T12:57:59;7.09;81.83
67157;SHT31;54086;50.126;8.710;2023-02-11T13:00:34;7.06;82.47
67157;SHT31;54086;50.126;8.710;2023-02-11T13:05:52;7.16;82.35
67157;SHT31;54086;50.126;8.710;2023-02-11T13:08:31;7.26;82.18
67157;SHT31;54086;50.126;8.710;2023-02-11T13:11:01;7.31;81.88
67157;SHT31;54086;50.126;8.710;2023-02-11T13:13:34;7.37;81.93
67157;SHT31;54086;50.126;8.710;2023-02-11T13:16:08;7.43;81.64
67157;SHT31;54086;50.126;8.710;2023-02-11T13:23:54;7.47;81.64
67157;SHT31;54086;50.126;8.710;2023-02-11T13:26:53;7.50;81.62
67157;SHT31;54086;50.126;8.710;2023-02-11T13:29:25;7.51;81.45
67157;SHT31;54086;50.126;8.710;2023-02-11T13:31:55;7.41;81.57
67157;SHT31;54086;50.126;8.710;2023-02-11T13:34:26;7.46;81.73
67157;SHT31;54086;50.126;8.710;2023-02-11T13:37:25;7.47;81.66
67157;SHT31;54086;50.126;8.710;2023-02-11T13:40:05;7.48;81.97
67157;SHT31;54086;50.126;8.710;2023-02-11T13:42:33;7.40;82.23
67157;SHT31;54086;50.126;8.710;2023-02-11T13:44:59;7.43;82.41
67157;SHT31;54086;50.126;8.710;2023-02-11T13:47:30;7.48;82.44
67157;SHT31;54086;50.126;8.710;2023-02-11T13:49:58;7.54;82.50
67157;SHT31;54086;50.126;8.710;2023-02-11T13:52:33;7.51;82.93
67157;SHT31;54086;50.126;8.710;2023-02-11T13:55:14;7.57;82.80
67157;SHT31;54086;50.126;8.710;2023-02-11T13:57:44;7.61;82.71
67157;SHT31;54086;50.126;8.710;2023-02-11T14:14:22;7.71;82.89
67157;SHT31;54086;50.126;8.710;2023-02-11T14:19:40;7.72;82.79
67157;SHT31;54086;50.126;8.710;2023-02-11T14:22:18;7.78;82.83
67157;SHT31;54086;50.126;8.710;2023-02-11T14:24:51;7.78;82.55
67157;SHT31;54086;50.126;8.710;2023-02-11T14:30:09;7.64;83.09
67157;SHT31;54086;50.126;8.710;2023-02-11T14:39:53;7.54;83.72
67157;SHT31;54086;50.126;8.710;2023-02-11T14:41:58;7.64;83.46
67157;SHT31;54086;50.126;8.710;2023-02-11T14:44:27;7.72;83.26
67157;SHT31;54086;50.126;8.710;2023-02-11T14:46:55;7.88;82.89
67157;SHT31;54086;50.126;8.710;2023-02-11T14:51:59;7.85;82.77
67157;SHT31;54086;50.126;8.710;2023-02-11T14:54:28;7.93;82.61
67157;SHT31;54086;50.126;8.710;2023-02-11T14:57:14;7.98;82.43
67157;SHT31;54086;50.126;8.710;2023-02-11T14:59:53;7.96;82.40
67157;SHT31;54086;50.126;8.710;2023-02-11T15:02:24;7.77;82.53
67157;SHT31;54086;50.126;8.710;2023-02-11T15:05:19;7.85;82.80
67157;SHT31;54086;50.126;8.710;2023-02-11T15:07:48;7.83;82.81
67157;SHT31;54086;50.126;8.710;2023-02-11T15:13:06;7.83;82.80
67157;SHT31;54086;50.126;8.710;2023-02-11T15:15:32;7.86;82.76
67157;SHT31;54086;50.126;8.710;2023-02-11T15:18:01;7.72;83.10
67157;SHT31;54086;50.126;8.710;2023-02-11T15:20:30;7.79;83.21
67157;SHT31;54086;50.126;8.710;2023-02-11T15:22:59;7.78;83.11
67157;SHT31;54086;50.126;8.710;2023-02-11T15:25:29;7.78;83.15
67157;SHT31;54086;50.126;8.710;2023-02-11T15:27:56;7.78;83.29
67157;SHT31;54086;50.126;8.710;2023-02-11T15:32:48;7.82;83.27
67157;SHT31;54086;50.126;8.710;2023-02-11T15:35:22;7.79;83.28
67157;SHT31;54086;50.126;8.710;2023-02-11T15:37:47;7.77;83.59
67157;SHT31;54086;50.126;8.710;2023-02-11T15:40:16;7.72;83.69
67157;SHT31;54086;50.126;8.710;2023-02-11T15:43:00;7.72;83.92
67157;SHT31;54086;50.126;8.710;2023-02-11T15:45:30;7.74;84.02
67157;SHT31;54086;50.126;8.710;2023-02-11T15:50:32;7.75;84.17
67157;SHT31;54086;50.126;8.710;2023-02-11T15:55:44;7.81;84.30
67157;SHT31;54086;50.126;8.710;2023-02-11T15:58:10;7.72;84.28
67157;SHT31;54086;50.126;8.710;2023-02-11T16:00:45;7.65;84.66
67157;SHT31;54086;50.126;8.710;2023-02-11T16:03:26;7.65;84.74
67157;SHT31;54086;50.126;8.710;2023-02-11T16:06:19;7.67;84.70
67157;SHT31;54086;50.126;8.710;2023-02-11T16:08:58;7.72;84.81
67157;SHT31;54086;50.126;8.710;2023-02-11T16:11:27;7.68;84.82
67157;SHT31;54086;50.126;8.710;2023-02-11T16:13:54;7.74;84.73
67157;SHT31;54086;50.126;8.710;2023-02-11T16:16:32;7.72;84.74
67157;SHT31;54086;50.126;8.710;2023-02-11T16:18:59;7.72;84.69
67157;SHT31;54086;50.126;8.710;2023-02-11T16:21:30;7.62;84.87
67157;SHT31;54086;50.126;8.710;2023-02-11T16:24:04;7.62;85.00
67157;SHT31;54086;50.126;8.710;2023-02-11T16:26:40;7.55;85.11
67157;SHT31;54086;50.126;8.710;2023-02-11T16:29:22;7.47;85.13
67157;SHT31;54086;50.126;8.710;2023-02-11T16:31:49;7.51;85.06
67157;SHT31;54086;50.126;8.710;2023-02-11T16:34:20;7.51;84.89
67157;SHT31;54086;50.126;8.710;2023-02-11T16:36:46;7.47;85.05
67157;SHT31;54086;50.126;8.710;2023-02-11T16:39:13;7.44;85.20
67157;SHT31;54086;50.126;8.710;2023-02-11T16:41:38;7.37;85.29
67157;SHT31;54086;50.126;8.710;2023-02-11T16:44:04;7.40;85.22
67157;SHT31;54086;50.126;8.710;2023-02-11T16:46:30;7.41;85.27
67157;SHT31;54086;50.126;8.710;2023-02-11T16:48:56;7.46;85.13
67157;SHT31;54086;50.126;8.710;2023-02-11T16:51:22;7.47;85.06
67157;SHT31;54086;50.126;8.710;2023-02-11T16:53:48;7.43;85.20
67157;SHT31;54086;50.126;8.710;2023-02-11T16:56:15;7.43;85.30
67157;SHT31;54086;50.126;8.710;2023-02-11T16:58:41;7.43;85.29
67157;SHT31;54086;50.126;8.710;2023-02-11T17:01:06;7.46;85.36
67157;SHT31;54086;50.126;8.710;2023-02-11T17:03:32;7.50;85.28
67157;SHT31;54086;50.126;8.710;2023-02-11T17:06:08;7.51;85.19
67157;SHT31;54086;50.126;8.710;2023-02-11T17:08:34;7.46;85.13
67157;SHT31;54086;50.126;8.710;2023-02-11T17:11:00;7.50;84.99
67157;SHT31;54086;50.126;8.710;2023-02-11T17:13:26;7.41;85.11
67157;SHT31;54086;50.126;8.710;2023-02-11T17:15:51;7.43;85.22
67157;SHT31;54086;50.126;8.710;2023-02-11T17:18:16;7.37;85.16
67157;SHT31;54086;50.126;8.710;2023-02-11T17:20:42;7.27;85.31
67157;SHT31;54086;50.126;8.710;2023-02-11T17:23:07;7.24;85.21
67157;SHT31;54086;50.126;8.710;2023-02-11T17:25:33;7.19;85.15
67157;SHT31;54086;50.126;8.710;2023-02-11T17:28:02;7.03;85.18
67157;SHT31;54086;50.126;8.710;2023-02-11T17:30:28;7.09;84.89
67157;SHT31;54086;50.126;8.710;2023-02-11T17:32:53;7.11;84.81
67157;SHT31;54086;50.126;8.710;2023-02-11T17:35:18;7.03;84.89
67157;SHT31;54086;50.126;8.710;2023-02-11T17:37:44;6.93;85.09
67157;SHT31;54086;50.126;8.710;2023-02-11T17:40:10;6.95;85.10
67157;SHT31;54086;50.126;8.710;2023-02-11T17:42:36;6.96;85.06
67157;SHT31;54086;50.126;8.710;2023-02-11T17:45:01;6.99;84.98
67157;SHT31;54086;50.126;8.710;2023-02-11T17:47:27;7.00;85.00
67157;SHT31;54086;50.126;8.710;2023-02-11T17:49:53;7.03;84.87
67157;SHT31;54086;50.126;8.710;2023-02-11T17:52:18;7.01;85.03
67157;SHT31;54086;50.126;8.710;2023-02-11T17:54:45;7.17;84.80
67157;SHT31;54086;50.126;8.710;2023-02-11T17:57:11;7.16;84.63
67157;SHT31;54086;50.126;8.710;2023-02-11T17:59:38;7.19;84.54
67157;SHT31;54086;50.126;8.710;2023-02-11T18:02:04;7.28;84.32
67157;SHT31;54086;50.126;8.710;2023-02-11T18:04:30;7.24;84.32
67157;SHT31;54086;50.126;8.710;2023-02-11T18:06:56;7.17;84.61
67157;SHT31;54086;50.126;8.710;2023-02-11T18:09:23;7.11;84.51
67157;SHT31;54086;50.126;8.710;2023-02-11T18:11:49;7.07;84.70